createdAt,value
2022-12-31T00:01:21.646Z,0.77
2022-12-31T00:03:49.593Z,0.84
2022-12-31T00:06:31.336Z,0.85
2022-12-31T00:08:59.744Z,0.80
2022-12-31T00:11:28.922Z,0.69
2022-12-31T00:13:55.788Z,0.66
2022-12-31T00:16:25.195Z,0.67
2022-12-31T00:18:54.279Z,0.67
2022-12-31T00:21:21.949Z,0.72
2022-12-31T00:23:49.144Z,0.78
2022-12-31T00:26:18.111Z,0.89
2022-12-31T00:28:45.452Z,1.00
2022-12-31T00:31:22.871Z,1.03
2022-12-31T00:33:50.050Z,1.01
2022-12-31T00:36:19.965Z,1.06
2022-12-31T00:38:48.773Z,1.07
2022-12-31T00:41:16.354Z,1.17
2022-12-31T00:43:43.004Z,1.26
2022-12-31T00:46:11.851Z,1.24
2022-12-31T00:48:39.105Z,1.26
2022-12-31T00:51:08.488Z,1.29
2022-12-31T00:53:35.407Z,1.33
2022-12-31T00:56:04.209Z,1.29
2022-12-31T00:58:30.957Z,1.26
2022-12-31T01:00:58.035Z,1.29
2022-12-31T01:03:25.817Z,1.35
2022-12-31T01:05:52.605Z,1.35
2022-12-31T01:08:19.153Z,1.33
2022-12-31T01:10:52.191Z,1.40
2022-12-31T01:13:18.764Z,1.45
2022-12-31T01:15:45.370Z,1.38
2022-12-31T01:18:11.953Z,1.27
2022-12-31T01:20:40.302Z,1.31
2022-12-31T01:23:08.874Z,1.38
2022-12-31T01:25:40.175Z,1.34
2022-12-31T01:28:06.915Z,1.28
2022-12-31T01:30:33.490Z,1.31
2022-12-31T01:33:00.109Z,1.39
2022-12-31T01:35:26.717Z,1.41
2022-12-31T01:37:53.286Z,1.45
2022-12-31T01:40:19.867Z,1.45
2022-12-31T01:42:54.337Z,1.38
2022-12-31T01:45:21.337Z,1.46
2022-12-31T01:47:51.859Z,1.41
2022-12-31T01:50:24.429Z,1.44
2022-12-31T01:52:54.590Z,1.42
2022-12-31T01:55:56.332Z,1.37
2022-12-31T01:58:42.164Z,1.39
2022-12-31T02:01:10.114Z,1.37
2022-12-31T02:03:37.286Z,1.43
2022-12-31T02:06:13.639Z,1.51
2022-12-31T02:08:42.269Z,1.54
2022-12-31T02:11:38.801Z,1.51
2022-12-31T02:14:27.166Z,1.54
2022-12-31T02:17:30.864Z,1.61
2022-12-31T02:20:34.680Z,1.64
2022-12-31T02:23:46.952Z,1.56
2022-12-31T02:26:28.499Z,1.57
2022-12-31T02:29:19.925Z,1.50
2022-12-31T02:31:52.915Z,1.54
2022-12-31T02:34:58.741Z,1.54
2022-12-31T02:37:28.897Z,1.57
2022-12-31T02:39:56.402Z,1.62
2022-12-31T02:42:22.958Z,1.70
2022-12-31T02:44:49.576Z,1.77
2022-12-31T02:47:37.845Z,1.80
2022-12-31T02:50:32.290Z,1.75
2022-12-31T02:53:32.942Z,1.79
2022-12-31T02:56:04.405Z,1.81
2022-12-31T02:58:30.899Z,1.85
2022-12-31T03:00:58.751Z,1.78
2022-12-31T03:03:27.314Z,1.75
2022-12-31T03:05:55.537Z,1.81
2022-12-31T03:08:23.961Z,1.80
2022-12-31T03:10:50.855Z,1.83
2022-12-31T03:13:17.650Z,1.86
2022-12-31T03:15:44.261Z,1.86
2022-12-31T03:18:16.171Z,1.85
2022-12-31T03:20:44.573Z,1.86
2022-12-31T03:23:13.429Z,1.89
2022-12-31T03:25:40.325Z,1.93
2022-12-31T03:28:09.755Z,1.91
2022-12-31T03:30:38.957Z,1.92
2022-12-31T03:33:07.442Z,1.96
2022-12-31T03:35:36.434Z,1.98
2022-12-31T03:38:04.034Z,1.99
2022-12-31T03:40:31.732Z,1.95
2022-12-31T03:42:58.317Z,1.98
2022-12-31T03:45:24.835Z,1.98
2022-12-31T03:47:51.369Z,2.00
2022-12-31T03:50:19.095Z,1.99
2022-12-31T03:52:46.121Z,1.98
2022-12-31T03:55:13.046Z,2.06
2022-12-31T03:57:40.170Z,2.08
2022-12-31T04:00:09.400Z,2.07
2022-12-31T04:02:36.409Z,2.15
2022-12-31T04:05:03.187Z,2.15
2022-12-31T04:07:29.889Z,2.21
2022-12-31T04:09:56.453Z,2.25
2022-12-31T04:12:23.335Z,2.28
2022-12-31T04:14:50.012Z,2.30
2022-12-31T04:17:16.623Z,2.31
2022-12-31T04:19:43.211Z,2.33
2022-12-31T04:22:09.733Z,2.28
2022-12-31T04:24:36.218Z,2.28
2022-12-31T04:27:07.540Z,2.31
2022-12-31T04:29:35.484Z,2.40
2022-12-31T04:32:02.900Z,2.36
2022-12-31T04:34:29.481Z,2.33
2022-12-31T04:36:56.178Z,2.40
2022-12-31T04:39:22.787Z,2.48
2022-12-31T04:41:49.487Z,2.46
2022-12-31T04:44:16.223Z,2.50
2022-12-31T04:46:42.860Z,2.53
2022-12-31T04:49:09.434Z,2.53
2022-12-31T04:51:36.619Z,2.55
2022-12-31T04:54:03.559Z,2.57
2022-12-31T04:56:30.448Z,2.59
2022-12-31T04:58:57.029Z,2.46
2022-12-31T05:01:24.465Z,2.46
2022-12-31T05:03:51.410Z,2.42
2022-12-31T05:06:20.532Z,2.38
2022-12-31T05:08:47.666Z,2.36
2022-12-31T05:11:14.498Z,2.26
2022-12-31T05:13:41.361Z,2.17
2022-12-31T05:16:08.153Z,2.12
2022-12-31T05:18:35.523Z,1.96
2022-12-31T05:21:02.267Z,2.01
2022-12-31T05:23:28.977Z,2.02
2022-12-31T05:25:55.838Z,2.04
2022-12-31T05:28:22.463Z,2.10
2022-12-31T05:30:50.715Z,2.16
2022-12-31T05:33:18.511Z,2.20
2022-12-31T05:35:46.004Z,2.23
2022-12-31T05:38:12.689Z,2.21
2022-12-31T05:40:39.382Z,2.27
2022-12-31T05:43:06.104Z,2.32
2022-12-31T05:45:32.738Z,2.39
2022-12-31T05:47:59.235Z,2.35
2022-12-31T05:50:26.021Z,2.38
2022-12-31T05:52:52.623Z,2.26
2022-12-31T05:55:19.298Z,2.27
2022-12-31T05:57:46.049Z,2.26
2022-12-31T06:00:13.099Z,2.24
2022-12-31T06:02:39.684Z,2.21
2022-12-31T06:05:06.657Z,2.24
2022-12-31T06:07:33.384Z,2.28
2022-12-31T06:09:59.968Z,2.33
2022-12-31T06:12:27.366Z,2.37
2022-12-31T06:14:53.870Z,2.36
2022-12-31T06:17:20.491Z,2.44
2022-12-31T06:19:47.123Z,2.37
2022-12-31T06:22:14.029Z,2.39
2022-12-31T06:24:40.532Z,2.39
2022-12-31T06:27:07.049Z,2.38
2022-12-31T06:29:33.605Z,2.15
2022-12-31T06:32:00.182Z,2.14
2022-12-31T06:34:26.793Z,2.08
2022-12-31T06:36:53.373Z,1.91
2022-12-31T06:39:19.887Z,1.72
2022-12-31T06:41:46.523Z,1.78
2022-12-31T06:44:13.067Z,1.68
2022-12-31T06:46:39.631Z,1.70
2022-12-31T06:49:06.229Z,1.74
2022-12-31T06:51:32.818Z,1.72
2022-12-31T06:53:59.293Z,1.81
2022-12-31T06:56:33.423Z,1.96
2022-12-31T06:59:01.588Z,2.03
2022-12-31T07:01:58.032Z,2.08
2022-12-31T07:04:45.645Z,1.94
2022-12-31T07:07:16.896Z,1.79
2022-12-31T07:09:43.300Z,1.73
2022-12-31T07:12:44.222Z,1.51
2022-12-31T07:15:43.601Z,1.45
2022-12-31T07:18:20.415Z,1.40
2022-12-31T07:20:47.224Z,1.39
2022-12-31T07:23:14.047Z,1.48
2022-12-31T07:25:49.056Z,1.45
2022-12-31T07:28:20.861Z,1.57
2022-12-31T07:31:06.200Z,1.71
2022-12-31T07:34:12.417Z,1.62
2022-12-31T07:37:17.250Z,1.60
2022-12-31T07:40:03.278Z,1.49
2022-12-31T07:43:03.736Z,1.42
2022-12-31T07:45:41.208Z,1.43
2022-12-31T07:48:26.538Z,1.47
2022-12-31T07:50:55.000Z,1.43
2022-12-31T07:53:25.528Z,1.38
2022-12-31T07:55:58.260Z,1.56
2022-12-31T07:58:53.741Z,1.68
2022-12-31T08:01:35.838Z,1.75
2022-12-31T08:04:11.480Z,1.80
2022-12-31T08:06:53.513Z,1.79
2022-12-31T08:09:35.567Z,1.85
2022-12-31T08:12:03.017Z,1.86
2022-12-31T08:14:30.390Z,1.73
2022-12-31T08:16:57.463Z,1.69
2022-12-31T08:19:30.512Z,1.78
2022-12-31T08:22:12.713Z,1.93
2022-12-31T08:25:15.485Z,2.04
2022-12-31T08:28:06.778Z,2.16
2022-12-31T08:31:02.923Z,2.14
2022-12-31T08:34:06.238Z,2.08
2022-12-31T08:36:47.904Z,2.09
2022-12-31T08:39:51.442Z,2.19
2022-12-31T08:42:32.750Z,2.27
2022-12-31T08:45:34.441Z,2.33
2022-12-31T08:48:24.024Z,2.25
2022-12-31T08:50:50.851Z,2.31
2022-12-31T08:53:17.652Z,2.29
2022-12-31T08:55:46.856Z,2.32
2022-12-31T08:58:25.316Z,2.33
2022-12-31T09:00:56.591Z,2.31
2022-12-31T09:03:35.350Z,2.39
2022-12-31T09:06:23.833Z,2.45
2022-12-31T09:08:52.984Z,2.45
2022-12-31T09:11:34.687Z,2.43
2022-12-31T09:14:12.000Z,2.45
2022-12-31T09:16:58.832Z,2.52
2022-12-31T09:19:25.498Z,2.43
2022-12-31T09:21:52.250Z,2.54
2022-12-31T09:24:19.255Z,2.62
2022-12-31T09:27:13.171Z,2.60
2022-12-31T09:29:57.373Z,2.61
2022-12-31T09:32:23.823Z,2.62
2022-12-31T09:34:54.853Z,2.73
2022-12-31T09:37:46.800Z,2.66
2022-12-31T09:40:22.360Z,2.75
2022-12-31T09:42:54.841Z,2.71
2022-12-31T09:45:36.400Z,2.68
2022-12-31T09:48:28.812Z,2.66
2022-12-31T09:51:25.250Z,2.54
2022-12-31T09:54:22.536Z,2.63
2022-12-31T09:57:19.830Z,2.77
2022-12-31T09:59:51.383Z,2.83
2022-12-31T10:02:42.615Z,2.96
2022-12-31T10:05:27.815Z,2.98
2022-12-31T10:08:20.671Z,2.90
2022-12-31T10:10:54.606Z,2.91
2022-12-31T10:13:32.371Z,2.89
2022-12-31T10:16:01.743Z,2.71
2022-12-31T10:18:55.400Z,2.68
2022-12-31T10:21:37.245Z,2.82
2022-12-31T10:24:48.147Z,2.84
2022-12-31T10:27:20.532Z,2.94
2022-12-31T10:29:57.792Z,3.01
2022-12-31T10:33:01.589Z,2.99
2022-12-31T10:35:38.733Z,3.07
2022-12-31T10:38:32.940Z,3.02
2022-12-31T10:41:11.651Z,3.10
2022-12-31T10:44:13.516Z,3.15
2022-12-31T10:47:16.273Z,3.24
2022-12-31T10:50:10.714Z,3.30
2022-12-31T10:53:03.208Z,3.13
2022-12-31T10:55:51.342Z,3.09
2022-12-31T10:58:20.568Z,3.16
2022-12-31T11:01:02.177Z,3.16
2022-12-31T11:03:49.002Z,3.22
2022-12-31T11:06:33.728Z,3.22
2022-12-31T11:09:03.402Z,3.20
2022-12-31T11:11:49.138Z,3.21
2022-12-31T11:14:40.062Z,3.17
2022-12-31T11:17:34.303Z,3.14
2022-12-31T11:20:31.429Z,3.11
2022-12-31T11:23:37.006Z,3.07
2022-12-31T11:26:06.184Z,2.99
2022-12-31T11:28:44.595Z,2.95
2022-12-31T11:31:22.999Z,2.90
2022-12-31T11:33:55.461Z,2.87
2022-12-31T11:37:19.549Z,2.82
2022-12-31T11:40:01.348Z,2.93
2022-12-31T11:42:43.446Z,2.90
2022-12-31T11:45:27.068Z,2.91
2022-12-31T11:51:36.201Z,2.80
2022-12-31T11:54:28.605Z,2.70
2022-12-31T11:57:27.433Z,2.73
2022-12-31T12:00:00.242Z,2.80
2022-12-31T12:02:34.402Z,2.70
2022-12-31T12:05:10.641Z,2.69
2022-12-31T12:07:37.904Z,2.63
2022-12-31T12:10:17.693Z,2.72
2022-12-31T12:12:44.510Z,2.71
2022-12-31T12:15:18.523Z,2.76
2022-12-31T12:17:51.912Z,2.77
2022-12-31T12:20:46.302Z,2.75
2022-12-31T12:23:21.700Z,2.77
2022-12-31T12:25:48.228Z,2.81
2022-12-31T12:28:31.641Z,2.87
2022-12-31T12:31:05.547Z,2.95
2022-12-31T12:33:45.223Z,2.92
2022-12-31T12:36:14.470Z,2.92
2022-12-31T12:38:41.550Z,2.98
2022-12-31T12:41:19.107Z,2.98
2022-12-31T12:43:45.830Z,3.03
2022-12-31T12:46:23.524Z,2.98
2022-12-31T12:48:55.540Z,2.98
2022-12-31T12:51:40.177Z,2.96
2022-12-31T12:54:19.699Z,2.97
2022-12-31T12:56:52.333Z,2.90
2022-12-31T12:59:27.656Z,2.94
2022-12-31T13:02:20.394Z,2.91
2022-12-31T13:05:14.622Z,2.95
2022-12-31T13:08:00.238Z,2.90
2022-12-31T13:10:48.644Z,2.77
2022-12-31T13:13:56.199Z,2.44
2022-12-31T13:16:22.764Z,2.27
2022-12-31T13:18:57.948Z,2.04
2022-12-31T13:21:30.551Z,1.83
2022-12-31T13:24:06.929Z,1.80
2022-12-31T13:26:52.361Z,1.95
2022-12-31T13:29:23.946Z,2.09
2022-12-31T13:31:52.415Z,2.16
2022-12-31T13:34:27.374Z,2.16
2022-12-31T13:36:59.189Z,2.25
2022-12-31T13:39:30.234Z,2.32
2022-12-31T13:42:07.456Z,2.43
2022-12-31T13:44:44.272Z,2.48
2022-12-31T13:47:17.659Z,2.55
2022-12-31T13:49:55.993Z,2.57
2022-12-31T13:52:59.939Z,2.57
2022-12-31T13:55:40.129Z,2.63
2022-12-31T13:58:30.211Z,2.62
2022-12-31T14:01:04.612Z,2.55
2022-12-31T14:03:31.122Z,2.54
2022-12-31T14:06:23.855Z,2.63
2022-12-31T14:08:52.615Z,2.70
2022-12-31T14:11:44.007Z,2.76
2022-12-31T14:14:27.051Z,2.79
2022-12-31T14:17:03.572Z,2.80
2022-12-31T14:19:48.273Z,2.76
2022-12-31T14:22:34.302Z,2.77
2022-12-31T14:25:03.858Z,2.84
2022-12-31T14:27:38.710Z,2.86
2022-12-31T14:30:19.222Z,2.87
2022-12-31T14:32:46.290Z,2.90
2022-12-31T14:35:22.104Z,2.95
2022-12-31T14:38:02.796Z,2.96
2022-12-31T14:40:46.241Z,3.03
2022-12-31T14:43:26.502Z,3.03
2022-12-31T14:46:29.863Z,3.03
2022-12-31T14:49:28.375Z,3.05
2022-12-31T14:51:54.853Z,3.09
2022-12-31T14:54:38.072Z,3.14
2022-12-31T14:57:16.775Z,3.14
2022-12-31T14:59:58.886Z,3.17
2022-12-31T15:02:33.532Z,3.17
2022-12-31T15:05:23.431Z,3.14
2022-12-31T15:08:17.809Z,3.10
2022-12-31T15:11:05.989Z,3.13
2022-12-31T15:13:53.896Z,3.11
2022-12-31T15:16:42.007Z,3.11
2022-12-31T15:19:56.242Z,3.06
2022-12-31T15:22:51.140Z,3.09
2022-12-31T15:25:27.293Z,3.09
2022-12-31T15:27:59.517Z,3.13
2022-12-31T15:30:29.234Z,3.11
2022-12-31T15:32:59.064Z,3.10
2022-12-31T15:35:31.471Z,3.04
2022-12-31T15:38:11.584Z,3.09
2022-12-31T15:40:50.858Z,3.10
2022-12-31T15:43:17.286Z,3.08
2022-12-31T15:45:44.161Z,3.07
2022-12-31T15:48:20.056Z,3.09
2022-12-31T15:50:49.613Z,2.97
2022-12-31T15:53:44.122Z,2.98
2022-12-31T15:56:19.813Z,3.05
2022-12-31T15:58:50.043Z,3.03
2022-12-31T16:01:23.073Z,3.10
2022-12-31T16:03:56.597Z,3.03
2022-12-31T16:06:25.592Z,2.99
2022-12-31T16:08:52.149Z,2.92
2022-12-31T16:11:18.978Z,2.93
2022-12-31T16:13:48.736Z,2.94
2022-12-31T16:16:25.633Z,2.91
2022-12-31T16:18:52.814Z,2.90
2022-12-31T16:21:30.399Z,2.89
2022-12-31T16:24:00.035Z,2.89
2022-12-31T16:26:49.674Z,2.77
2022-12-31T16:29:19.201Z,2.72
2022-12-31T16:31:48.415Z,2.68
2022-12-31T16:34:24.302Z,2.80
2022-12-31T16:37:06.346Z,2.87
2022-12-31T16:39:36.133Z,2.94
2022-12-31T16:42:17.288Z,2.92
2022-12-31T16:44:44.030Z,2.90
2022-12-31T16:47:19.627Z,2.84
2022-12-31T16:49:50.371Z,2.88
2022-12-31T16:52:38.514Z,2.83
2022-12-31T16:55:24.578Z,2.82
2022-12-31T16:57:54.373Z,2.78
2022-12-31T17:00:23.673Z,2.73
2022-12-31T17:03:16.581Z,2.68
2022-12-31T17:06:02.013Z,2.60
2022-12-31T17:08:57.932Z,2.61
2022-12-31T17:11:27.771Z,2.68
2022-12-31T17:14:19.203Z,2.74
2022-12-31T17:17:06.959Z,2.75
2022-12-31T17:19:49.213Z,2.76
2022-12-31T17:22:37.186Z,2.74
2022-12-31T17:25:05.481Z,2.75
2022-12-31T17:27:32.657Z,2.77
2022-12-31T17:30:27.104Z,2.81
2022-12-31T17:33:00.680Z,2.85
2022-12-31T17:35:36.132Z,2.77
2022-12-31T17:38:17.986Z,2.76
2022-12-31T17:40:51.411Z,2.74
2022-12-31T17:43:20.516Z,2.76
2022-12-31T17:45:50.080Z,2.72
2022-12-31T17:48:19.215Z,2.64
2022-12-31T17:50:57.302Z,2.55
2022-12-31T17:53:24.145Z,2.51
2022-12-31T17:55:56.575Z,2.51
2022-12-31T17:58:29.842Z,2.53
2022-12-31T18:00:57.550Z,2.50
2022-12-31T18:03:24.304Z,2.46
2022-12-31T18:05:50.978Z,2.44
2022-12-31T18:08:17.497Z,2.37
2022-12-31T18:10:45.511Z,2.29
2022-12-31T18:13:18.862Z,2.14
2022-12-31T18:15:45.961Z,2.07
2022-12-31T18:18:29.655Z,1.90
2022-12-31T18:21:20.865Z,1.79
2022-12-31T18:23:48.557Z,1.70
2022-12-31T18:26:17.391Z,1.67
2022-12-31T18:28:44.326Z,1.78
2022-12-31T18:31:26.365Z,1.90
2022-12-31T18:33:54.613Z,1.91
2022-12-31T18:36:22.913Z,1.87
2022-12-31T18:38:50.746Z,1.85
2022-12-31T18:41:26.257Z,1.84
2022-12-31T18:43:53.302Z,1.65
2022-12-31T18:46:22.700Z,1.74
2022-12-31T18:48:49.374Z,1.59
2022-12-31T18:51:29.605Z,1.53
2022-12-31T18:54:00.632Z,1.69
2022-12-31T18:56:27.729Z,1.77
2022-12-31T18:58:54.651Z,1.73
2022-12-31T19:01:28.820Z,1.65
2022-12-31T19:03:58.070Z,1.55
2022-12-31T19:06:25.315Z,1.37
2022-12-31T19:08:52.253Z,1.31
2022-12-31T19:11:19.908Z,1.11
2022-12-31T19:13:47.978Z,1.07
2022-12-31T19:16:14.921Z,1.08
2022-12-31T19:18:41.908Z,1.14
2022-12-31T19:21:18.041Z,1.28
2022-12-31T19:23:45.924Z,1.33
2022-12-31T19:26:15.937Z,1.41
2022-12-31T19:28:43.225Z,1.45
2022-12-31T19:31:09.837Z,1.52
2022-12-31T19:33:36.462Z,1.56
2022-12-31T19:36:04.028Z,1.36
2022-12-31T19:38:30.644Z,1.33
2022-12-31T19:40:57.522Z,1.19
2022-12-31T19:43:24.412Z,1.28
2022-12-31T19:45:51.985Z,1.25
2022-12-31T19:48:30.443Z,1.39
2022-12-31T19:50:59.187Z,1.42
2022-12-31T19:53:27.380Z,1.43
2022-12-31T19:55:54.387Z,1.44
2022-12-31T19:58:23.723Z,1.53
2022-12-31T20:00:56.802Z,1.61
2022-12-31T20:03:25.680Z,1.69
2022-12-31T20:06:04.835Z,1.47
2022-12-31T20:08:31.517Z,1.47
2022-12-31T20:10:58.256Z,1.42
2022-12-31T20:13:27.609Z,1.32
2022-12-31T20:15:54.327Z,1.55
2022-12-31T20:18:20.887Z,1.52
2022-12-31T20:20:53.441Z,1.55
2022-12-31T20:23:22.197Z,1.50
2022-12-31T20:25:59.319Z,1.51
2022-12-31T20:28:26.763Z,1.47
2022-12-31T20:30:53.628Z,1.30
2022-12-31T20:33:20.404Z,1.36
2022-12-31T20:35:47.021Z,1.16
2022-12-31T20:38:14.398Z,1.09
2022-12-31T20:40:46.438Z,0.98
2022-12-31T20:43:13.762Z,1.01
2022-12-31T20:45:41.076Z,1.04
2022-12-31T20:48:07.717Z,0.97
2022-12-31T20:50:34.376Z,0.98
2022-12-31T20:53:01.115Z,0.91
2022-12-31T20:55:27.744Z,1.03
2022-12-31T20:57:54.284Z,1.10
2022-12-31T21:00:20.789Z,1.19
2022-12-31T21:02:56.332Z,1.22
2022-12-31T21:05:27.450Z,1.21
2022-12-31T21:07:54.108Z,1.26
2022-12-31T21:10:20.589Z,1.03
2022-12-31T21:12:47.286Z,1.12
2022-12-31T21:15:13.918Z,0.94
2022-12-31T21:17:40.493Z,1.02
2022-12-31T21:20:07.774Z,0.98
2022-12-31T21:22:34.273Z,0.81
2022-12-31T21:25:02.165Z,0.85
2022-12-31T21:27:29.777Z,0.78
2022-12-31T21:30:20.812Z,0.90
2022-12-31T21:32:43.009Z,0.82
2022-12-31T21:38:00.802Z,0.86
2022-12-31T21:40:28.214Z,0.79
2022-12-31T21:42:54.879Z,0.72
2022-12-31T21:45:21.411Z,0.66
2022-12-31T21:47:48.032Z,0.50
2022-12-31T21:50:14.720Z,0.69
2022-12-31T21:52:41.266Z,0.73
2022-12-31T21:55:08.395Z,0.89
2022-12-31T21:57:59.197Z,0.89
2022-12-31T22:00:41.759Z,0.82
2022-12-31T22:03:12.038Z,0.55
2022-12-31T22:05:45.129Z,0.47
2022-12-31T22:08:11.733Z,0.51
2022-12-31T22:10:42.827Z,0.62
2022-12-31T22:13:16.005Z,0.44
2022-12-31T22:15:46.902Z,0.48
2022-12-31T22:18:15.445Z,0.50
2022-12-31T22:20:42.183Z,0.64
2022-12-31T22:23:08.805Z,0.64
2022-12-31T22:25:36.621Z,0.64
2022-12-31T22:28:36.995Z,0.84
2022-12-31T22:30:50.988Z,0.66
2022-12-31T22:33:17.762Z,0.56
2022-12-31T22:35:44.352Z,0.55
2022-12-31T22:38:12.323Z,0.58
2022-12-31T22:40:39.147Z,0.61
2022-12-31T22:43:05.719Z,0.61
2022-12-31T22:45:32.254Z,0.50
2022-12-31T22:47:58.898Z,0.77
2022-12-31T22:50:25.421Z,0.57
2022-12-31T22:52:51.988Z,0.40
2022-12-31T22:55:18.587Z,0.40
2022-12-31T22:57:45.085Z,0.47
2022-12-31T23:00:13.747Z,0.52
2022-12-31T23:02:42.218Z,0.58
2022-12-31T23:05:15.263Z,0.50
2022-12-31T23:07:42.993Z,0.59
2022-12-31T23:10:10.797Z,0.73
2022-12-31T23:12:37.428Z,0.63
2022-12-31T23:15:04.528Z,0.75
2022-12-31T23:18:10.004Z,0.81
2022-12-31T23:20:36.581Z,0.78
2022-12-31T23:23:03.515Z,0.74
2022-12-31T23:25:36.592Z,0.70
2022-12-31T23:28:04.359Z,0.71
2022-12-31T23:30:30.983Z,0.65
2022-12-31T23:32:57.551Z,0.70
2022-12-31T23:35:24.202Z,0.68
2022-12-31T23:37:50.772Z,0.65
2022-12-31T23:40:21.454Z,0.62
2022-12-31T23:42:48.921Z,0.56
2022-12-31T23:45:15.651Z,0.68
2022-12-31T23:47:42.270Z,0.62
2022-12-31T23:50:08.953Z,0.61
2022-12-31T23:52:35.592Z,0.64
2022-12-31T23:55:02.106Z,0.70
2022-12-31T23:57:28.746Z,0.62
2022-12-31T23:59:55.334Z,0.68
